sensor_id;sensor_type;location;lat;lon;timestamp;pressure;altitude;pressure_sealevel;temperature;humidity
29467;BME280;60968;37.490;-122.288;2022-07-12T00:00:55;98317.63;;;28.65;37.03
29467;BME280;60968;37.490;-122.288;2022-07-12T00:03:57;98312.00;;;28.58;37.33
29467;BME280;60968;37.490;-122.288;2022-07-12T00:06:58;98312.16;;;28.57;37.24
29467;BME280;60968;37.490;-122.288;2022-07-12T00:09:59;98311.03;;;28.60;37.10
29467;BME280;60968;37.490;-122.288;2022-07-12T00:13:00;98314.25;;;28.63;37.03
29467;BME280;60968;37.490;-122.288;2022-07-12T00:16:02;98308.72;;;28.65;37.12
29467;BME280;60968;37.490;-122.288;2022-07-12T00:19:03;98310.97;;;28.69;37.21
29467;BME280;60968;37.490;-122.288;2022-07-12T00:22:04;98298.25;;;28.71;36.08
29467;BME280;60968;37.490;-122.288;2022-07-12T00:25:05;98307.06;;;28.64;36.92
29467;BME280;60968;37.490;-122.288;2022-07-12T00:28:07;98312.28;;;28.65;37.29
29467;BME280;60968;37.490;-122.288;2022-07-12T00:31:10;98310.44;;;28.66;37.54
29467;BME280;60968;37.490;-122.288;2022-07-12T00:34:12;98294.91;;;28.69;35.87
29467;BME280;60968;37.490;-122.288;2022-07-12T00:37:13;98299.06;;;28.72;35.12
29467;BME280;60968;37.490;-122.288;2022-07-12T00:40:14;98300.09;;;28.71;34.01
29467;BME280;60968;37.490;-122.288;2022-07-12T00:43:16;98293.38;;;28.67;32.47
29467;BME280;60968;37.490;-122.288;2022-07-12T00:46:21;98290.06;;;28.73;32.37
29467;BME280;60968;37.490;-122.288;2022-07-12T00:49:23;98284.66;;;28.55;32.10
29467;BME280;60968;37.490;-122.288;2022-07-12T00:52:24;98292.50;;;28.30;33.35
29467;BME280;60968;37.490;-122.288;2022-07-12T00:55:26;98283.69;;;28.20;33.01
29467;BME280;60968;37.490;-122.288;2022-07-12T00:58:28;98287.38;;;28.19;32.34
29467;BME280;60968;37.490;-122.288;2022-07-12T01:01:29;98285.75;;;28.08;30.57
29467;BME280;60968;37.490;-122.288;2022-07-12T01:04:31;98279.47;;;28.17;29.88
29467;BME280;60968;37.490;-122.288;2022-07-12T01:07:32;98276.50;;;28.20;29.16
29467;BME280;60968;37.490;-122.288;2022-07-12T01:10:35;98279.19;;;28.20;29.62
29467;BME280;60968;37.490;-122.288;2022-07-12T01:13:37;98276.81;;;28.17;29.81
29467;BME280;60968;37.490;-122.288;2022-07-12T01:16:39;98279.31;;;28.01;29.80
29467;BME280;60968;37.490;-122.288;2022-07-12T01:19:40;98277.53;;;27.82;30.50
29467;BME280;60968;37.490;-122.288;2022-07-12T01:22:51;98276.34;;;27.66;30.18
29467;BME280;60968;37.490;-122.288;2022-07-12T01:25:53;98273.88;;;27.55;30.46
29467;BME280;60968;37.490;-122.288;2022-07-12T01:28:55;98272.25;;;27.44;30.17
29467;BME280;60968;37.490;-122.288;2022-07-12T01:32:02;98274.06;;;27.34;30.64
29467;BME280;60968;37.490;-122.288;2022-07-12T01:35:05;98267.81;;;27.15;30.51
29467;BME280;60968;37.490;-122.288;2022-07-12T01:38:06;98259.53;;;27.09;31.10
29467;BME280;60968;37.490;-122.288;2022-07-12T01:41:08;98264.88;;;27.09;30.80
29467;BME280;60968;37.490;-122.288;2022-07-12T01:44:09;98263.47;;;27.04;30.08
29467;BME280;60968;37.490;-122.288;2022-07-12T01:47:11;98266.03;;;27.06;30.45
29467;BME280;60968;37.490;-122.288;2022-07-12T01:50:12;98278.53;;;27.05;30.97
29467;BME280;60968;37.490;-122.288;2022-07-12T01:53:15;98286.56;;;26.96;30.12
29467;BME280;60968;37.490;-122.288;2022-07-12T01:56:17;98279.44;;;26.86;30.57
29467;BME280;60968;37.490;-122.288;2022-07-12T01:59:19;98276.03;;;26.65;32.02
29467;BME280;60968;37.490;-122.288;2022-07-12T02:02:20;98277.72;;;26.46;32.60
29467;BME280;60968;37.490;-122.288;2022-07-12T02:05:21;98279.28;;;26.39;32.76
29467;BME280;60968;37.490;-122.288;2022-07-12T02:08:22;98288.41;;;26.36;31.79
29467;BME280;60968;37.490;-122.288;2022-07-12T02:11:23;98283.94;;;26.37;32.64
29467;BME280;60968;37.490;-122.288;2022-07-12T02:14:24;98282.22;;;26.16;36.40
29467;BME280;60968;37.490;-122.288;2022-07-12T02:17:25;98291.13;;;25.96;38.22
29467;BME280;60968;37.490;-122.288;2022-07-12T02:20:25;98285.03;;;25.64;38.52
29467;BME280;60968;37.490;-122.288;2022-07-12T02:23:26;98290.41;;;25.43;38.54
29467;BME280;60968;37.490;-122.288;2022-07-12T02:26:27;98293.50;;;25.17;39.56
29467;BME280;60968;37.490;-122.288;2022-07-12T02:29:31;98292.91;;;24.93;40.11
29467;BME280;60968;37.490;-122.288;2022-07-12T02:32:31;98294.59;;;24.73;40.63
29467;BME280;60968;37.490;-122.288;2022-07-12T02:35:34;98299.72;;;24.64;41.53
29467;BME280;60968;37.490;-122.288;2022-07-12T02:38:34;98299.88;;;24.52;43.32
29467;BME280;60968;37.490;-122.288;2022-07-12T02:41:35;98307.31;;;24.37;44.52
29467;BME280;60968;37.490;-122.288;2022-07-12T02:44:36;98303.03;;;24.13;45.97
29467;BME280;60968;37.490;-122.288;2022-07-12T02:47:41;98313.56;;;24.03;46.14
29467;BME280;60968;37.490;-122.288;2022-07-12T02:50:42;98305.97;;;23.98;46.25
29467;BME280;60968;37.490;-122.288;2022-07-12T02:53:44;98311.03;;;23.79;45.77
29467;BME280;60968;37.490;-122.288;2022-07-12T02:56:45;98312.75;;;23.69;45.50
29467;BME280;60968;37.490;-122.288;2022-07-12T02:59:46;98320.09;;;23.54;45.37
29467;BME280;60968;37.490;-122.288;2022-07-12T03:02:47;98316.84;;;23.39;46.20
29467;BME280;60968;37.490;-122.288;2022-07-12T03:05:48;98316.84;;;23.39;46.34
29467;BME280;60968;37.490;-122.288;2022-07-12T03:08:49;98324.19;;;23.12;47.44
29467;BME280;60968;37.490;-122.288;2022-07-12T03:11:50;98327.72;;;22.89;48.80
29467;BME280;60968;37.490;-122.288;2022-07-12T03:14:51;98333.44;;;22.71;49.41
29467;BME280;60968;37.490;-122.288;2022-07-12T03:17:52;98342.66;;;22.54;51.02
29467;BME280;60968;37.490;-122.288;2022-07-12T03:20:53;98345.22;;;22.56;50.89
29467;BME280;60968;37.490;-122.288;2022-07-12T03:23:54;98353.50;;;22.51;50.94
29467;BME280;60968;37.490;-122.288;2022-07-12T03:26:55;98354.75;;;22.34;50.67
29467;BME280;60968;37.490;-122.288;2022-07-12T03:29:56;98349.75;;;22.05;52.27
29467;BME280;60968;37.490;-122.288;2022-07-12T03:32:57;98354.97;;;21.94;53.98
29467;BME280;60968;37.490;-122.288;2022-07-12T03:35:59;98355.63;;;21.72;56.00
29467;BME280;60968;37.490;-122.288;2022-07-12T03:39:00;98362.09;;;21.68;55.72
29467;BME280;60968;37.490;-122.288;2022-07-12T03:42:01;98353.31;;;21.67;55.59
29467;BME280;60968;37.490;-122.288;2022-07-12T03:45:05;98353.28;;;21.41;55.99
29467;BME280;60968;37.490;-122.288;2022-07-12T03:48:06;98359.63;;;21.26;58.12
29467;BME280;60968;37.490;-122.288;2022-07-12T03:51:07;98360.19;;;21.18;58.10
29467;BME280;60968;37.490;-122.288;2022-07-12T03:54:07;98362.72;;;21.20;58.31
29467;BME280;60968;37.490;-122.288;2022-07-12T03:57:08;98371.47;;;20.95;59.18
29467;BME280;60968;37.490;-122.288;2022-07-12T04:00:11;98376.31;;;20.88;59.36
29467;BME280;60968;37.490;-122.288;2022-07-12T04:03:12;98378.28;;;20.71;59.88
29467;BME280;60968;37.490;-122.288;2022-07-12T04:06:13;98386.94;;;20.46;61.18
29467;BME280;60968;37.490;-122.288;2022-07-12T04:09:14;98387.34;;;20.40;62.85
29467;BME280;60968;37.490;-122.288;2022-07-12T04:12:15;98392.28;;;20.32;64.46
29467;BME280;60968;37.490;-122.288;2022-07-12T04:15:16;98395.53;;;20.08;65.46
29467;BME280;60968;37.490;-122.288;2022-07-12T04:18:16;98408.13;;;20.04;66.19
29467;BME280;60968;37.490;-122.288;2022-07-12T04:21:18;98404.63;;;19.90;66.56
29467;BME280;60968;37.490;-122.288;2022-07-12T04:24:18;98409.13;;;19.73;66.30
29467;BME280;60968;37.490;-122.288;2022-07-12T04:27:19;98416.00;;;19.32;68.97
29467;BME280;60968;37.490;-122.288;2022-07-12T04:30:20;98423.84;;;19.18;70.44
29467;BME280;60968;37.490;-122.288;2022-07-12T04:33:21;98427.84;;;18.95;71.50
29467;BME280;60968;37.490;-122.288;2022-07-12T04:36:22;98428.00;;;18.76;72.99
29467;BME280;60968;37.490;-122.288;2022-07-12T04:39:22;98426.66;;;18.68;73.31
29467;BME280;60968;37.490;-122.288;2022-07-12T04:42:23;98436.22;;;18.55;75.27
29467;BME280;60968;37.490;-122.288;2022-07-12T04:45:24;98432.38;;;18.45;76.29
29467;BME280;60968;37.490;-122.288;2022-07-12T04:48:25;98435.19;;;18.26;78.22
29467;BME280;60968;37.490;-122.288;2022-07-12T04:51:26;98435.88;;;18.29;77.97
29467;BME280;60968;37.490;-122.288;2022-07-12T04:54:27;98439.59;;;18.25;78.07
29467;BME280;60968;37.490;-122.288;2022-07-12T04:57:28;98443.41;;;18.04;79.59
29467;BME280;60968;37.490;-122.288;2022-07-12T05:00:29;98443.69;;;18.15;78.27
29467;BME280;60968;37.490;-122.288;2022-07-12T05:03:29;98448.59;;;18.05;78.41
29467;BME280;60968;37.490;-122.288;2022-07-12T05:06:30;98450.41;;;17.87;78.76
29467;BME280;60968;37.490;-122.288;2022-07-12T05:09:31;98449.03;;;17.80;78.72
29467;BME280;60968;37.490;-122.288;2022-07-12T05:12:35;98462.63;;;17.72;78.73
29467;BME280;60968;37.490;-122.288;2022-07-12T05:15:36;98466.13;;;17.55;79.48
29467;BME280;60968;37.490;-122.288;2022-07-12T05:18:36;98462.16;;;17.64;78.84
29467;BME280;60968;37.490;-122.288;2022-07-12T05:21:37;98465.47;;;17.67;78.95
29467;BME280;60968;37.490;-122.288;2022-07-12T05:24:38;98463.50;;;17.55;80.08
29467;BME280;60968;37.490;-122.288;2022-07-12T05:27:39;98467.13;;;17.53;80.71
29467;BME280;60968;37.490;-122.288;2022-07-12T05:30:42;98466.13;;;17.38;81.72
29467;BME280;60968;37.490;-122.288;2022-07-12T05:33:43;98473.34;;;17.34;81.78
29467;BME280;60968;37.490;-122.288;2022-07-12T05:36:44;98464.00;;;17.27;82.02
29467;BME280;60968;37.490;-122.288;2022-07-12T05:39:45;98461.78;;;17.19;82.68
29467;BME280;60968;37.490;-122.288;2022-07-12T05:42:46;98460.75;;;17.04;84.31
29467;BME280;60968;37.490;-122.288;2022-07-12T05:45:48;98463.78;;;16.96;85.07
29467;BME280;60968;37.490;-122.288;2022-07-12T05:48:49;98460.91;;;17.01;85.77
29467;BME280;60968;37.490;-122.288;2022-07-12T05:51:50;98472.59;;;16.95;86.29
29467;BME280;60968;37.490;-122.288;2022-07-12T05:54:50;98472.03;;;16.89;87.03
29467;BME280;60968;37.490;-122.288;2022-07-12T05:57:51;98474.88;;;16.84;87.05
29467;BME280;60968;37.490;-122.288;2022-07-12T06:00:52;98466.69;;;16.90;86.79
29467;BME280;60968;37.490;-122.288;2022-07-12T06:03:53;98474.94;;;16.83;87.52
29467;BME280;60968;37.490;-122.288;2022-07-12T06:06:54;98467.28;;;16.78;88.47
29467;BME280;60968;37.490;-122.288;2022-07-12T06:09:54;98472.81;;;16.72;88.93
29467;BME280;60968;37.490;-122.288;2022-07-12T06:12:55;98470.56;;;16.64;89.06
29467;BME280;60968;37.490;-122.288;2022-07-12T06:15:56;98468.13;;;16.59;89.51
29467;BME280;60968;37.490;-122.288;2022-07-12T06:18:58;98451.81;;;16.53;90.27
29467;BME280;60968;37.490;-122.288;2022-07-12T06:21:59;98463.81;;;16.58;89.53
29467;BME280;60968;37.490;-122.288;2022-07-12T06:25:00;98446.81;;;16.46;90.58
29467;BME280;60968;37.490;-122.288;2022-07-12T06:28:01;98455.84;;;16.41;91.46
29467;BME280;60968;37.490;-122.288;2022-07-12T06:31:03;98456.44;;;16.48;90.73
29467;BME280;60968;37.490;-122.288;2022-07-12T06:34:07;98456.84;;;16.38;91.28
29467;BME280;60968;37.490;-122.288;2022-07-12T06:37:08;98458.84;;;16.33;91.98
29467;BME280;60968;37.490;-122.288;2022-07-12T06:40:11;98457.88;;;16.36;92.28
29467;BME280;60968;37.490;-122.288;2022-07-12T06:43:12;98452.88;;;16.29;92.64
29467;BME280;60968;37.490;-122.288;2022-07-12T06:46:13;98449.63;;;16.24;93.36
29467;BME280;60968;37.490;-122.288;2022-07-12T06:49:14;98448.28;;;16.35;92.81
29467;BME280;60968;37.490;-122.288;2022-07-12T06:52:15;98444.06;;;16.31;92.86
29467;BME280;60968;37.490;-122.288;2022-07-12T06:55:17;98443.94;;;16.34;93.07
29467;BME280;60968;37.490;-122.288;2022-07-12T06:58:19;98441.75;;;16.24;93.92
29467;BME280;60968;37.490;-122.288;2022-07-12T07:01:20;98446.34;;;16.19;94.13
29467;BME280;60968;37.490;-122.288;2022-07-12T07:04:21;98437.47;;;16.22;94.44
29467;BME280;60968;37.490;-122.288;2022-07-12T07:07:22;98446.22;;;16.22;94.22
29467;BME280;60968;37.490;-122.288;2022-07-12T07:10:23;98439.31;;;16.20;94.39
29467;BME280;60968;37.490;-122.288;2022-07-12T07:13:24;98447.50;;;16.14;95.16
29467;BME280;60968;37.490;-122.288;2022-07-12T07:16:25;98436.09;;;16.13;95.10
29467;BME280;60968;37.490;-122.288;2022-07-12T07:19:26;98432.94;;;16.06;95.83
29467;BME280;60968;37.490;-122.288;2022-07-12T07:22:27;98441.00;;;16.02;96.01
29467;BME280;60968;37.490;-122.288;2022-07-12T07:25:28;98439.22;;;15.83;97.05
29467;BME280;60968;37.490;-122.288;2022-07-12T07:28:28;98430.00;;;15.73;98.21
29467;BME280;60968;37.490;-122.288;2022-07-12T07:31:29;98443.66;;;15.60;99.32
29467;BME280;60968;37.490;-122.288;2022-07-12T07:34:30;98439.84;;;15.68;98.83
29467;BME280;60968;37.490;-122.288;2022-07-12T07:37:31;98435.72;;;15.62;99.07
29467;BME280;60968;37.490;-122.288;2022-07-12T07:40:33;98432.13;;;15.65;99.38
29467;BME280;60968;37.490;-122.288;2022-07-12T07:43:35;98430.81;;;15.54;100.00
29467;BME280;60968;37.490;-122.288;2022-07-12T07:46:36;98431.75;;;15.53;100.00
29467;BME280;60968;37.490;-122.288;2022-07-12T07:49:38;98427.31;;;15.54;100.00
29467;BME280;60968;37.490;-122.288;2022-07-12T07:52:39;98422.00;;;15.55;100.00
29467;BME280;60968;37.490;-122.288;2022-07-12T07:55:41;98427.41;;;15.52;100.00
29467;BME280;60968;37.490;-122.288;2022-07-12T07:58:42;98419.94;;;15.43;100.00
29467;BME280;60968;37.490;-122.288;2022-07-12T08:01:43;98430.31;;;15.46;100.00
29467;BME280;60968;37.490;-122.288;2022-07-12T08:04:45;98423.34;;;15.45;100.00
29467;BME280;60968;37.490;-122.288;2022-07-12T08:07:45;98422.19;;;15.32;100.00
29467;BME280;60968;37.490;-122.288;2022-07-12T08:10:49;98418.28;;;15.20;100.00
29467;BME280;60968;37.490;-122.288;2022-07-12T08:13:50;98418.69;;;15.11;100.00
29467;BME280;60968;37.490;-122.288;2022-07-12T08:16:51;98415.88;;;15.15;100.00
29467;BME280;60968;37.490;-122.288;2022-07-12T08:19:52;98429.81;;;15.16;100.00
29467;BME280;60968;37.490;-122.288;2022-07-12T08:22:53;98417.59;;;15.16;100.00
29467;BME280;60968;37.490;-122.288;2022-07-12T08:25:53;98428.06;;;15.16;100.00
29467;BME280;60968;37.490;-122.288;2022-07-12T08:28:54;98416.56;;;15.19;100.00
29467;BME280;60968;37.490;-122.288;2022-07-12T08:31:55;98417.44;;;15.19;100.00
29467;BME280;60968;37.490;-122.288;2022-07-12T08:34:56;98413.84;;;15.22;100.00
29467;BME280;60968;37.490;-122.288;2022-07-12T08:37:57;98412.19;;;15.19;100.00
29467;BME280;60968;37.490;-122.288;2022-07-12T08:40:57;98412.06;;;15.22;100.00
29467;BME280;60968;37.490;-122.288;2022-07-12T08:43:58;98408.25;;;15.30;100.00
29467;BME280;60968;37.490;-122.288;2022-07-12T08:46:59;98421.06;;;15.37;100.00
29467;BME280;60968;37.490;-122.288;2022-07-12T08:50:15;98411.78;;;15.29;100.00
29467;BME280;60968;37.490;-122.288;2022-07-12T08:53:16;98421.06;;;15.37;100.00
29467;BME280;60968;37.490;-122.288;2022-07-12T08:56:31;98422.03;;;15.35;100.00
29467;BME280;60968;37.490;-122.288;2022-07-12T08:59:32;98413.81;;;15.42;100.00
29467;BME280;60968;37.490;-122.288;2022-07-12T09:02:43;98412.13;;;15.41;100.00
29467;BME280;60968;37.490;-122.288;2022-07-12T09:05:57;98405.56;;;15.31;100.00
29467;BME280;60968;37.490;-122.288;2022-07-12T09:08:58;98405.38;;;15.15;100.00
29467;BME280;60968;37.490;-122.288;2022-07-12T09:11:59;98412.25;;;14.97;100.00
29467;BME280;60968;37.490;-122.288;2022-07-12T09:18:16;98413.19;;;14.74;100.00
29467;BME280;60968;37.490;-122.288;2022-07-12T09:21:28;98418.69;;;14.68;100.00
29467;BME280;60968;37.490;-122.288;2022-07-12T09:24:29;98417.09;;;14.64;100.00
29467;BME280;60968;37.490;-122.288;2022-07-12T09:27:30;98423.53;;;14.55;100.00
29467;BME280;60968;37.490;-122.288;2022-07-12T09:30:31;98418.41;;;14.52;100.00
29467;BME280;60968;37.490;-122.288;2022-07-12T09:33:32;98418.41;;;14.52;100.00
29467;BME280;60968;37.490;-122.288;2022-07-12T09:36:33;98419.38;;;14.49;100.00
29467;BME280;60968;37.490;-122.288;2022-07-12T09:39:34;98415.31;;;14.42;100.00
29467;BME280;60968;37.490;-122.288;2022-07-12T09:42:35;98419.44;;;14.48;100.00
29467;BME280;60968;37.490;-122.288;2022-07-12T09:45:36;98417.09;;;14.41;100.00
29467;BME280;60968;37.490;-122.288;2022-07-12T09:48:41;98423.38;;;14.36;100.00
29467;BME280;60968;37.490;-122.288;2022-07-12T09:51:42;98412.81;;;14.39;100.00
29467;BME280;60968;37.490;-122.288;2022-07-12T09:54:46;98423.09;;;14.44;100.00
29467;BME280;60968;37.490;-122.288;2022-07-12T09:57:48;98417.72;;;14.47;100.00
29467;BME280;60968;37.490;-122.288;2022-07-12T10:00:53;98416.16;;;14.43;100.00
29467;BME280;60968;37.490;-122.288;2022-07-12T10:03:56;98413.47;;;14.44;100.00
29467;BME280;60968;37.490;-122.288;2022-07-12T10:07:01;98413.38;;;14.47;100.00
29467;BME280;60968;37.490;-122.288;2022-07-12T10:10:02;98411.16;;;14.58;100.00
29467;BME280;60968;37.490;-122.288;2022-07-12T10:13:04;98407.41;;;14.66;100.00
29467;BME280;60968;37.490;-122.288;2022-07-12T10:16:05;98412.31;;;14.73;100.00
29467;BME280;60968;37.490;-122.288;2022-07-12T10:19:22;98402.84;;;14.91;100.00
29467;BME280;60968;37.490;-122.288;2022-07-12T10:22:23;98405.88;;;15.03;100.00
29467;BME280;60968;37.490;-122.288;2022-07-12T10:25:32;98409.41;;;15.02;100.00
29467;BME280;60968;37.490;-122.288;2022-07-12T10:31:55;98411.38;;;15.17;100.00
29467;BME280;60968;37.490;-122.288;2022-07-12T10:34:59;98410.34;;;15.21;100.00
29467;BME280;60968;37.490;-122.288;2022-07-12T10:41:21;98412.41;;;15.15;100.00
29467;BME280;60968;37.490;-122.288;2022-07-12T10:44:35;98419.53;;;15.11;100.00
29467;BME280;60968;37.490;-122.288;2022-07-12T10:47:53;98426.03;;;15.02;100.00
29467;BME280;60968;37.490;-122.288;2022-07-12T10:50:56;98416.78;;;14.94;100.00
29467;BME280;60968;37.490;-122.288;2022-07-12T10:54:19;98415.22;;;14.88;100.00
29467;BME280;60968;37.490;-122.288;2022-07-12T10:57:43;98418.00;;;14.85;100.00
29467;BME280;60968;37.490;-122.288;2022-07-12T11:00:46;98415.69;;;14.77;100.00
29467;BME280;60968;37.490;-122.288;2022-07-12T11:04:20;98412.88;;;14.82;100.00
29467;BME280;60968;37.490;-122.288;2022-07-12T11:07:17;98416.78;;;14.71;100.00
29467;BME280;60968;37.490;-122.288;2022-07-12T11:10:18;98408.72;;;14.54;100.00
29467;BME280;60968;37.490;-122.288;2022-07-12T11:13:23;98403.38;;;14.57;100.00
29467;BME280;60968;37.490;-122.288;2022-07-12T11:16:25;98404.06;;;14.61;100.00
29467;BME280;60968;37.490;-122.288;2022-07-12T11:19:28;98414.41;;;14.65;100.00
29467;BME280;60968;37.490;-122.288;2022-07-12T11:22:29;98411.53;;;14.49;100.00
29467;BME280;60968;37.490;-122.288;2022-07-12T11:25:29;98409.22;;;14.64;100.00
29467;BME280;60968;37.490;-122.288;2022-07-12T11:28:31;98404.47;;;14.73;100.00
29467;BME280;60968;37.490;-122.288;2022-07-12T11:31:32;98409.00;;;14.70;100.00
29467;BME280;60968;37.490;-122.288;2022-07-12T11:34:34;98407.47;;;14.64;100.00
29467;BME280;60968;37.490;-122.288;2022-07-12T11:37:35;98408.31;;;14.65;100.00
29467;BME280;60968;37.490;-122.288;2022-07-12T11:41:04;98405.84;;;14.82;100.00
29467;BME280;60968;37.490;-122.288;2022-07-12T11:44:05;98408.72;;;14.76;100.00
29467;BME280;60968;37.490;-122.288;2022-07-12T11:47:07;98408.88;;;14.73;100.00
29467;BME280;60968;37.490;-122.288;2022-07-12T11:50:08;98410.81;;;14.68;100.00
29467;BME280;60968;37.490;-122.288;2022-07-12T11:56:17;98404.50;;;14.50;100.00
29467;BME280;60968;37.490;-122.288;2022-07-12T11:59:26;98409.59;;;14.54;100.00
29467;BME280;60968;37.490;-122.288;2022-07-12T12:02:28;98411.84;;;14.41;100.00
29467;BME280;60968;37.490;-122.288;2022-07-12T12:05:29;98416.00;;;14.46;100.00
29467;BME280;60968;37.490;-122.288;2022-07-12T12:08:31;98411.38;;;14.52;100.00
29467;BME280;60968;37.490;-122.288;2022-07-12T12:11:32;98415.78;;;14.52;100.00
29467;BME280;60968;37.490;-122.288;2022-07-12T12:14:34;98411.28;;;14.33;100.00
29467;BME280;60968;37.490;-122.288;2022-07-12T12:17:37;98409.25;;;14.40;100.00
29467;BME280;60968;37.490;-122.288;2022-07-12T12:20:39;98410.28;;;14.36;100.00
29467;BME280;60968;37.490;-122.288;2022-07-12T12:23:46;98415.66;;;14.33;100.00
29467;BME280;60968;37.490;-122.288;2022-07-12T12:26:47;98409.16;;;14.43;100.00
29467;BME280;60968;37.490;-122.288;2022-07-12T12:29:48;98409.81;;;14.48;100.00
29467;BME280;60968;37.490;-122.288;2022-07-12T12:32:51;98411.03;;;14.62;100.00
29467;BME280;60968;37.490;-122.288;2022-07-12T12:35:52;98417.66;;;14.48;100.00
29467;BME280;60968;37.490;-122.288;2022-07-12T12:38:55;98414.63;;;14.59;100.00
29467;BME280;60968;37.490;-122.288;2022-07-12T12:41:56;98417.38;;;14.56;100.00
29467;BME280;60968;37.490;-122.288;2022-07-12T12:44:57;98410.69;;;14.71;100.00
29467;BME280;60968;37.490;-122.288;2022-07-12T12:48:02;98417.72;;;14.70;100.00
29467;BME280;60968;37.490;-122.288;2022-07-12T12:51:08;98422.16;;;14.68;100.00
29467;BME280;60968;37.490;-122.288;2022-07-12T12:54:10;98424.81;;;14.67;100.00
29467;BME280;60968;37.490;-122.288;2022-07-12T12:57:11;98425.44;;;14.73;100.00
29467;BME280;60968;37.490;-122.288;2022-07-12T13:00:12;98427.09;;;14.76;100.00
29467;BME280;60968;37.490;-122.288;2022-07-12T13:03:15;98425.44;;;14.73;100.00
29467;BME280;60968;37.490;-122.288;2022-07-12T13:06:17;98418.00;;;14.85;100.00
29467;BME280;60968;37.490;-122.288;2022-07-12T13:09:18;98415.38;;;14.85;100.00
29467;BME280;60968;37.490;-122.288;2022-07-12T13:12:18;98424.16;;;14.84;100.00
29467;BME280;60968;37.490;-122.288;2022-07-12T13:15:19;98421.53;;;14.84;100.00
29467;BME280;60968;37.490;-122.288;2022-07-12T13:18:20;98421.84;;;14.76;100.00
29467;BME280;60968;37.490;-122.288;2022-07-12T13:21:21;98426.97;;;14.79;100.00
29467;BME280;60968;37.490;-122.288;2022-07-12T13:24:22;98424.81;;;14.89;100.00
29467;BME280;60968;37.490;-122.288;2022-07-12T13:27:22;98428.13;;;14.94;100.00
29467;BME280;60968;37.490;-122.288;2022-07-12T13:30:23;98432.31;;;14.98;100.00
29467;BME280;60968;37.490;-122.288;2022-07-12T13:33:25;98434.28;;;14.93;100.00
29467;BME280;60968;37.490;-122.288;2022-07-12T13:36:26;98435.59;;;15.03;100.00
29467;BME280;60968;37.490;-122.288;2022-07-12T13:39:27;98442.63;;;15.03;100.00
29467;BME280;60968;37.490;-122.288;2022-07-12T13:42:28;98444.59;;;15.18;100.00
29467;BME280;60968;37.490;-122.288;2022-07-12T13:45:29;98448.81;;;15.22;100.00
29467;BME280;60968;37.490;-122.288;2022-07-12T13:48:30;98444.47;;;15.21;100.00
29467;BME280;60968;37.490;-122.288;2022-07-12T13:51:31;98457.97;;;15.12;100.00
29467;BME280;60968;37.490;-122.288;2022-07-12T13:54:32;98449.72;;;15.21;100.00
29467;BME280;60968;37.490;-122.288;2022-07-12T13:57:34;98443.81;;;15.37;100.00
29467;BME280;60968;37.490;-122.288;2022-07-12T14:00:36;98443.28;;;15.49;100.00
29467;BME280;60968;37.490;-122.288;2022-07-12T14:03:36;98438.03;;;15.49;100.00
29467;BME280;60968;37.490;-122.288;2022-07-12T14:06:37;98441.03;;;15.40;100.00
29467;BME280;60968;37.490;-122.288;2022-07-12T14:09:39;98435.88;;;15.38;100.00
29467;BME280;60968;37.490;-122.288;2022-07-12T14:12:40;98440.47;;;15.33;100.00
29467;BME280;60968;37.490;-122.288;2022-07-12T14:15:41;98442.00;;;15.39;100.00
29467;BME280;60968;37.490;-122.288;2022-07-12T14:18:42;98447.03;;;15.43;100.00
29467;BME280;60968;37.490;-122.288;2022-07-12T14:21:43;98441.84;;;15.42;100.00
29467;BME280;60968;37.490;-122.288;2022-07-12T14:24:45;98454.84;;;15.45;100.00
29467;BME280;60968;37.490;-122.288;2022-07-12T14:27:46;98451.47;;;15.62;100.00
29467;BME280;60968;37.490;-122.288;2022-07-12T14:30:47;98447.13;;;15.61;100.00
29467;BME280;60968;37.490;-122.288;2022-07-12T14:33:48;98447.75;;;15.88;100.00
29467;BME280;60968;37.490;-122.288;2022-07-12T14:36:48;98439.50;;;15.96;98.72
29467;BME280;60968;37.490;-122.288;2022-07-12T14:39:49;98440.63;;;15.90;99.20
29467;BME280;60968;37.490;-122.288;2022-07-12T14:42:51;98443.19;;;15.92;99.15
29467;BME280;60968;37.490;-122.288;2022-07-12T14:45:52;98447.34;;;16.17;97.51
29467;BME280;60968;37.490;-122.288;2022-07-12T14:48:52;98447.56;;;16.12;96.62
29467;BME280;60968;37.490;-122.288;2022-07-12T14:51:53;98453.69;;;16.32;95.82
29467;BME280;60968;37.490;-122.288;2022-07-12T14:54:54;98450.16;;;16.31;94.86
29467;BME280;60968;37.490;-122.288;2022-07-12T14:57:55;98459.56;;;16.37;95.16
29467;BME280;60968;37.490;-122.288;2022-07-12T15:00:57;98462.09;;;16.57;93.03
29467;BME280;60968;37.490;-122.288;2022-07-12T15:03:58;98460.53;;;16.34;93.51
29467;BME280;60968;37.490;-122.288;2022-07-12T15:06:59;98460.06;;;16.26;95.60
29467;BME280;60968;37.490;-122.288;2022-07-12T15:10:00;98468.09;;;16.42;94.05
29467;BME280;60968;37.490;-122.288;2022-07-12T15:13:01;98464.88;;;16.54;94.43
29467;BME280;60968;37.490;-122.288;2022-07-12T15:16:02;98462.53;;;16.67;91.48
29467;BME280;60968;37.490;-122.288;2022-07-12T15:19:03;98467.72;;;16.31;96.28
29467;BME280;60968;37.490;-122.288;2022-07-12T15:22:04;98478.41;;;16.83;91.45
29467;BME280;60968;37.490;-122.288;2022-07-12T15:25:05;98477.94;;;17.11;89.25
29467;BME280;60968;37.490;-122.288;2022-07-12T15:28:06;98479.88;;;17.08;89.60
29467;BME280;60968;37.490;-122.288;2022-07-12T15:31:07;98488.78;;;16.86;89.67
29467;BME280;60968;37.490;-122.288;2022-07-12T15:34:08;98490.91;;;17.34;88.90